sensor_id;sensor_type;location;lat;lon;timestamp;P1;durP1;ratioP1;P2;durP2;ratioP2
70312;SDS011;57723;51.698;5.344;2023-05-10T00:01:37;7.00;;;3.97;;
70312;SDS011;57723;51.698;5.344;2023-05-10T00:04:02;6.83;;;4.00;;
70312;SDS011;57723;51.698;5.344;2023-05-10T00:06:27;6.90;;;3.87;;
70312;SDS011;57723;51.698;5.344;2023-05-10T00:08:52;6.65;;;3.97;;
70312;SDS011;57723;51.698;5.344;2023-05-10T00:11:18;8.17;;;4.30;;
70312;SDS011;57723;51.698;5.344;2023-05-10T00:13:43;8.77;;;4.70;;
70312;SDS011;57723;51.698;5.344;2023-05-10T00:16:08;7.57;;;4.50;;
70312;SDS011;57723;51.698;5.344;2023-05-10T00:18:37;7.53;;;4.47;;
70312;SDS011;57723;51.698;5.344;2023-05-10T00:21:02;8.37;;;4.67;;
70312;SDS011;57723;51.698;5.344;2023-05-10T00:23:27;7.90;;;4.40;;
70312;SDS011;57723;51.698;5.344;2023-05-10T00:25:52;8.67;;;4.77;;
70312;SDS011;57723;51.698;5.344;2023-05-10T00:28:18;7.90;;;4.60;;
70312;SDS011;57723;51.698;5.344;2023-05-10T00:30:43;9.00;;;4.93;;
70312;SDS011;57723;51.698;5.344;2023-05-10T00:33:08;8.63;;;5.20;;
70312;SDS011;57723;51.698;5.344;2023-05-10T00:35:33;9.47;;;5.13;;
70312;SDS011;57723;51.698;5.344;2023-05-10T00:37:59;9.70;;;4.87;;
70312;SDS011;57723;51.698;5.344;2023-05-10T00:40:24;9.57;;;5.23;;
70312;SDS011;57723;51.698;5.344;2023-05-10T00:42:49;10.13;;;5.40;;
70312;SDS011;57723;51.698;5.344;2023-05-10T00:45:15;11.20;;;5.60;;
70312;SDS011;57723;51.698;5.344;2023-05-10T00:47:40;8.68;;;5.00;;
70312;SDS011;57723;51.698;5.344;2023-05-10T00:50:09;9.73;;;4.63;;
70312;SDS011;57723;51.698;5.344;2023-05-10T00:52:34;10.05;;;5.30;;
70312;SDS011;57723;51.698;5.344;2023-05-10T00:55:00;10.17;;;4.87;;
70312;SDS011;57723;51.698;5.344;2023-05-10T00:57:25;11.43;;;5.47;;
70312;SDS011;57723;51.698;5.344;2023-05-10T00:59:50;10.87;;;4.87;;
70312;SDS011;57723;51.698;5.344;2023-05-10T01:02:16;9.00;;;4.65;;
70312;SDS011;57723;51.698;5.344;2023-05-10T01:04:41;10.43;;;5.03;;
70312;SDS011;57723;51.698;5.344;2023-05-10T01:07:07;11.45;;;5.30;;
70312;SDS011;57723;51.698;5.344;2023-05-10T01:09:33;10.27;;;4.80;;
70312;SDS011;57723;51.698;5.344;2023-05-10T01:11:58;10.97;;;4.93;;
70312;SDS011;57723;51.698;5.344;2023-05-10T01:14:24;10.77;;;5.00;;
70312;SDS011;57723;51.698;5.344;2023-05-10T01:16:50;8.00;;;4.53;;
70312;SDS011;57723;51.698;5.344;2023-05-10T01:19:17;10.10;;;4.83;;
70312;SDS011;57723;51.698;5.344;2023-05-10T01:31:57;10.13;;;4.57;;
70312;SDS011;57723;51.698;5.344;2023-05-10T01:34:25;11.87;;;4.90;;
70312;SDS011;57723;51.698;5.344;2023-05-10T01:36:57;9.68;;;4.47;;
70312;SDS011;57723;51.698;5.344;2023-05-10T01:42:03;9.40;;;4.97;;
70312;SDS011;57723;51.698;5.344;2023-05-10T01:44:33;10.90;;;4.88;;
70312;SDS011;57723;51.698;5.344;2023-05-10T01:49:36;10.40;;;5.00;;
70312;SDS011;57723;51.698;5.344;2023-05-10T01:52:12;11.73;;;4.87;;
70312;SDS011;57723;51.698;5.344;2023-05-10T01:54:40;10.60;;;5.00;;
70312;SDS011;57723;51.698;5.344;2023-05-10T01:57:06;13.82;;;5.57;;
70312;SDS011;57723;51.698;5.344;2023-05-10T01:59:35;9.63;;;5.22;;
70312;SDS011;57723;51.698;5.344;2023-05-10T02:02:04;11.65;;;4.97;;
70312;SDS011;57723;51.698;5.344;2023-05-10T02:04:29;12.53;;;5.27;;
70312;SDS011;57723;51.698;5.344;2023-05-10T02:06:57;11.82;;;5.43;;
70312;SDS011;57723;51.698;5.344;2023-05-10T02:09:23;13.47;;;5.70;;
70312;SDS011;57723;51.698;5.344;2023-05-10T02:11:49;13.40;;;5.38;;
70312;SDS011;57723;51.698;5.344;2023-05-10T02:14:15;11.57;;;5.50;;
70312;SDS011;57723;51.698;5.344;2023-05-10T02:16:40;9.53;;;5.10;;
70312;SDS011;57723;51.698;5.344;2023-05-10T02:19:06;12.00;;;5.47;;
70312;SDS011;57723;51.698;5.344;2023-05-10T02:21:33;11.95;;;5.70;;
70312;SDS011;57723;51.698;5.344;2023-05-10T02:23:59;12.32;;;5.53;;
70312;SDS011;57723;51.698;5.344;2023-05-10T02:26:25;13.13;;;5.53;;
70312;SDS011;57723;51.698;5.344;2023-05-10T02:28:51;10.77;;;5.50;;
70312;SDS011;57723;51.698;5.344;2023-05-10T02:31:17;12.13;;;5.87;;
70312;SDS011;57723;51.698;5.344;2023-05-10T02:33:43;11.57;;;6.03;;
70312;SDS011;57723;51.698;5.344;2023-05-10T02:36:09;11.23;;;5.70;;
70312;SDS011;57723;51.698;5.344;2023-05-10T02:38:35;12.30;;;5.90;;
70312;SDS011;57723;51.698;5.344;2023-05-10T02:41:01;11.77;;;5.85;;
70312;SDS011;57723;51.698;5.344;2023-05-10T02:43:27;12.75;;;6.15;;
70312;SDS011;57723;51.698;5.344;2023-05-10T02:45:55;14.57;;;5.55;;
70312;SDS011;57723;51.698;5.344;2023-05-10T02:48:20;13.00;;;6.13;;
70312;SDS011;57723;51.698;5.344;2023-05-10T02:50:45;12.47;;;5.60;;
70312;SDS011;57723;51.698;5.344;2023-05-10T02:53:18;15.88;;;6.57;;
70312;SDS011;57723;51.698;5.344;2023-05-10T02:55:44;14.10;;;6.37;;
70312;SDS011;57723;51.698;5.344;2023-05-10T02:58:14;13.30;;;7.07;;
70312;SDS011;57723;51.698;5.344;2023-05-10T03:00:39;14.43;;;7.30;;
70312;SDS011;57723;51.698;5.344;2023-05-10T03:03:04;14.48;;;7.30;;
70312;SDS011;57723;51.698;5.344;2023-05-10T03:05:30;16.00;;;7.90;;
70312;SDS011;57723;51.698;5.344;2023-05-10T03:07:55;17.03;;;7.30;;
70312;SDS011;57723;51.698;5.344;2023-05-10T03:10:23;15.60;;;7.50;;
70312;SDS011;57723;51.698;5.344;2023-05-10T03:20:29;15.87;;;7.97;;
70312;SDS011;57723;51.698;5.344;2023-05-10T03:23:00;13.32;;;7.50;;
70312;SDS011;57723;51.698;5.344;2023-05-10T03:25:27;14.33;;;7.90;;
70312;SDS011;57723;51.698;5.344;2023-05-10T03:27:53;15.35;;;8.32;;
70312;SDS011;57723;51.698;5.344;2023-05-10T03:30:19;12.90;;;7.30;;
70312;SDS011;57723;51.698;5.344;2023-05-10T03:32:45;17.63;;;8.17;;
70312;SDS011;57723;51.698;5.344;2023-05-10T03:35:10;14.73;;;7.97;;
70312;SDS011;57723;51.698;5.344;2023-05-10T03:37:36;14.88;;;8.57;;
70312;SDS011;57723;51.698;5.344;2023-05-10T03:40:02;14.90;;;7.73;;
70312;SDS011;57723;51.698;5.344;2023-05-10T03:42:27;14.93;;;8.03;;
70312;SDS011;57723;51.698;5.344;2023-05-10T03:44:53;16.73;;;8.13;;
70312;SDS011;57723;51.698;5.344;2023-05-10T03:47:18;15.93;;;8.13;;
70312;SDS011;57723;51.698;5.344;2023-05-10T03:49:43;15.87;;;7.93;;
70312;SDS011;57723;51.698;5.344;2023-05-10T03:52:08;15.90;;;8.33;;
70312;SDS011;57723;51.698;5.344;2023-05-10T03:54:34;15.77;;;8.48;;
70312;SDS011;57723;51.698;5.344;2023-05-10T03:56:59;15.53;;;8.03;;
70312;SDS011;57723;51.698;5.344;2023-05-10T03:59:25;17.20;;;8.93;;
70312;SDS011;57723;51.698;5.344;2023-05-10T04:01:51;15.73;;;8.55;;
70312;SDS011;57723;51.698;5.344;2023-05-10T04:04:16;17.10;;;9.10;;
70312;SDS011;57723;51.698;5.344;2023-05-10T04:06:43;16.17;;;8.40;;
70312;SDS011;57723;51.698;5.344;2023-05-10T04:09:08;16.83;;;8.77;;
70312;SDS011;57723;51.698;5.344;2023-05-10T04:11:34;16.27;;;8.55;;
70312;SDS011;57723;51.698;5.344;2023-05-10T04:14:02;15.90;;;8.85;;
70312;SDS011;57723;51.698;5.344;2023-05-10T04:16:27;14.10;;;8.43;;
70312;SDS011;57723;51.698;5.344;2023-05-10T04:18:53;13.90;;;8.20;;
70312;SDS011;57723;51.698;5.344;2023-05-10T04:21:18;13.53;;;8.00;;
70312;SDS011;57723;51.698;5.344;2023-05-10T04:23:44;18.33;;;8.10;;
70312;SDS011;57723;51.698;5.344;2023-05-10T04:26:09;16.83;;;8.40;;
70312;SDS011;57723;51.698;5.344;2023-05-10T04:28:34;15.90;;;8.33;;
70312;SDS011;57723;51.698;5.344;2023-05-10T04:31:01;15.23;;;7.83;;
70312;SDS011;57723;51.698;5.344;2023-05-10T04:33:26;15.77;;;8.45;;
70312;SDS011;57723;51.698;5.344;2023-05-10T04:35:51;18.87;;;8.27;;
70312;SDS011;57723;51.698;5.344;2023-05-10T04:38:16;18.73;;;8.53;;
70312;SDS011;57723;51.698;5.344;2023-05-10T04:40:42;14.77;;;7.73;;
70312;SDS011;57723;51.698;5.344;2023-05-10T04:43:07;16.53;;;8.13;;
70312;SDS011;57723;51.698;5.344;2023-05-10T04:45:32;16.33;;;8.00;;
70312;SDS011;57723;51.698;5.344;2023-05-10T04:47:58;15.80;;;8.07;;
70312;SDS011;57723;51.698;5.344;2023-05-10T04:50:23;16.93;;;7.80;;
70312;SDS011;57723;51.698;5.344;2023-05-10T04:52:48;23.57;;;8.47;;
70312;SDS011;57723;51.698;5.344;2023-05-10T04:55:13;13.37;;;6.80;;
70312;SDS011;57723;51.698;5.344;2023-05-10T04:57:48;14.88;;;7.13;;
70312;SDS011;57723;51.698;5.344;2023-05-10T05:00:13;14.30;;;7.00;;
70312;SDS011;57723;51.698;5.344;2023-05-10T05:02:42;14.35;;;6.60;;
70312;SDS011;57723;51.698;5.344;2023-05-10T05:05:07;13.15;;;7.00;;
70312;SDS011;57723;51.698;5.344;2023-05-10T05:07:33;13.13;;;6.65;;
70312;SDS011;57723;51.698;5.344;2023-05-10T05:10:00;13.70;;;7.57;;
70312;SDS011;57723;51.698;5.344;2023-05-10T05:12:26;16.52;;;10.88;;
70312;SDS011;57723;51.698;5.344;2023-05-10T05:14:51;20.00;;;14.87;;
70312;SDS011;57723;51.698;5.344;2023-05-10T05:17:16;22.73;;;20.43;;
70312;SDS011;57723;51.698;5.344;2023-05-10T05:19:42;28.43;;;25.60;;
70312;SDS011;57723;51.698;5.344;2023-05-10T05:22:07;30.30;;;27.57;;
70312;SDS011;57723;51.698;5.344;2023-05-10T05:24:36;32.33;;;29.63;;
70312;SDS011;57723;51.698;5.344;2023-05-10T05:27:04;32.53;;;29.50;;
70312;SDS011;57723;51.698;5.344;2023-05-10T05:29:30;20.30;;;16.20;;
70312;SDS011;57723;51.698;5.344;2023-05-10T05:31:56;14.87;;;7.20;;
70312;SDS011;57723;51.698;5.344;2023-05-10T05:34:21;13.97;;;7.23;;
70312;SDS011;57723;51.698;5.344;2023-05-10T05:36:47;12.27;;;7.47;;
70312;SDS011;57723;51.698;5.344;2023-05-10T05:39:12;16.38;;;7.25;;
70312;SDS011;57723;51.698;5.344;2023-05-10T05:41:38;13.87;;;7.47;;
70312;SDS011;57723;51.698;5.344;2023-05-10T05:44:03;13.83;;;7.30;;
70312;SDS011;57723;51.698;5.344;2023-05-10T05:46:28;16.67;;;7.20;;
70312;SDS011;57723;51.698;5.344;2023-05-10T05:48:56;14.38;;;7.30;;
70312;SDS011;57723;51.698;5.344;2023-05-10T05:51:21;14.60;;;7.53;;
70312;SDS011;57723;51.698;5.344;2023-05-10T05:53:46;16.07;;;7.33;;
70312;SDS011;57723;51.698;5.344;2023-05-10T05:56:12;16.40;;;7.43;;
70312;SDS011;57723;51.698;5.344;2023-05-10T05:58:37;17.07;;;7.40;;
70312;SDS011;57723;51.698;5.344;2023-05-10T06:01:02;15.40;;;6.90;;
70312;SDS011;57723;51.698;5.344;2023-05-10T06:03:28;12.70;;;6.83;;
70312;SDS011;57723;51.698;5.344;2023-05-10T06:05:53;13.60;;;6.73;;
70312;SDS011;57723;51.698;5.344;2023-05-10T06:08:18;17.77;;;7.33;;
70312;SDS011;57723;51.698;5.344;2023-05-10T06:10:43;17.42;;;7.82;;
70312;SDS011;57723;51.698;5.344;2023-05-10T06:13:10;16.13;;;6.80;;
70312;SDS011;57723;51.698;5.344;2023-05-10T06:15:35;14.53;;;7.07;;
70312;SDS011;57723;51.698;5.344;2023-05-10T06:18:00;15.67;;;6.53;;
70312;SDS011;57723;51.698;5.344;2023-05-10T06:20:26;17.63;;;6.93;;
70312;SDS011;57723;51.698;5.344;2023-05-10T06:22:51;13.37;;;6.27;;
70312;SDS011;57723;51.698;5.344;2023-05-10T06:25:17;14.87;;;7.03;;
70312;SDS011;57723;51.698;5.344;2023-05-10T06:27:43;14.52;;;6.50;;
70312;SDS011;57723;51.698;5.344;2023-05-10T06:30:09;16.57;;;6.50;;
70312;SDS011;57723;51.698;5.344;2023-05-10T06:32:45;14.40;;;6.50;;
70312;SDS011;57723;51.698;5.344;2023-05-10T06:35:10;13.68;;;6.30;;
70312;SDS011;57723;51.698;5.344;2023-05-10T06:37:36;14.20;;;6.10;;
70312;SDS011;57723;51.698;5.344;2023-05-10T06:40:01;12.03;;;5.90;;
70312;SDS011;57723;51.698;5.344;2023-05-10T06:42:27;14.17;;;6.13;;
70312;SDS011;57723;51.698;5.344;2023-05-10T06:44:52;18.83;;;6.50;;
70312;SDS011;57723;51.698;5.344;2023-05-10T06:47:18;15.75;;;6.45;;
70312;SDS011;57723;51.698;5.344;2023-05-10T06:49:43;12.57;;;6.53;;
70312;SDS011;57723;51.698;5.344;2023-05-10T06:52:14;14.00;;;6.77;;
70312;SDS011;57723;51.698;5.344;2023-05-10T06:54:39;13.43;;;6.63;;
70312;SDS011;57723;51.698;5.344;2023-05-10T06:57:04;13.67;;;6.87;;
70312;SDS011;57723;51.698;5.344;2023-05-10T06:59:30;13.20;;;7.60;;
70312;SDS011;57723;51.698;5.344;2023-05-10T07:01:55;16.75;;;8.27;;
70312;SDS011;57723;51.698;5.344;2023-05-10T07:04:21;16.10;;;7.30;;
70312;SDS011;57723;51.698;5.344;2023-05-10T07:06:46;11.53;;;6.47;;
70312;SDS011;57723;51.698;5.344;2023-05-10T07:09:11;13.60;;;7.67;;
70312;SDS011;57723;51.698;5.344;2023-05-10T07:11:38;13.63;;;6.70;;
70312;SDS011;57723;51.698;5.344;2023-05-10T07:14:03;17.83;;;8.50;;
70312;SDS011;57723;51.698;5.344;2023-05-10T07:16:28;14.80;;;7.67;;
70312;SDS011;57723;51.698;5.344;2023-05-10T07:18:54;11.77;;;6.87;;
70312;SDS011;57723;51.698;5.344;2023-05-10T07:21:19;11.53;;;6.10;;
70312;SDS011;57723;51.698;5.344;2023-05-10T07:23:45;13.60;;;6.37;;
70312;SDS011;57723;51.698;5.344;2023-05-10T07:26:10;12.03;;;6.20;;
70312;SDS011;57723;51.698;5.344;2023-05-10T07:28:35;15.85;;;6.50;;
70312;SDS011;57723;51.698;5.344;2023-05-10T07:31:02;12.80;;;6.33;;
70312;SDS011;57723;51.698;5.344;2023-05-10T07:33:27;12.27;;;6.13;;
70312;SDS011;57723;51.698;5.344;2023-05-10T07:35:53;13.13;;;6.47;;
70312;SDS011;57723;51.698;5.344;2023-05-10T07:38:18;13.10;;;6.50;;
70312;SDS011;57723;51.698;5.344;2023-05-10T07:40:43;13.47;;;6.23;;
70312;SDS011;57723;51.698;5.344;2023-05-10T07:43:09;13.10;;;6.17;;
70312;SDS011;57723;51.698;5.344;2023-05-10T07:45:34;15.03;;;7.57;;
70312;SDS011;57723;51.698;5.344;2023-05-10T07:48:02;13.90;;;6.75;;
70312;SDS011;57723;51.698;5.344;2023-05-10T07:50:30;12.40;;;6.03;;
70312;SDS011;57723;51.698;5.344;2023-05-10T07:52:55;11.95;;;6.03;;
70312;SDS011;57723;51.698;5.344;2023-05-10T07:55:21;11.50;;;6.37;;
70312;SDS011;57723;51.698;5.344;2023-05-10T07:57:47;13.25;;;6.53;;
70312;SDS011;57723;51.698;5.344;2023-05-10T08:00:12;13.27;;;6.93;;
70312;SDS011;57723;51.698;5.344;2023-05-10T08:02:40;9.18;;;4.75;;
70312;SDS011;57723;51.698;5.344;2023-05-10T08:05:06;9.50;;;5.10;;
70312;SDS011;57723;51.698;5.344;2023-05-10T08:07:31;9.87;;;5.00;;
70312;SDS011;57723;51.698;5.344;2023-05-10T08:09:56;10.53;;;5.23;;
70312;SDS011;57723;51.698;5.344;2023-05-10T08:12:21;12.37;;;5.63;;
70312;SDS011;57723;51.698;5.344;2023-05-10T08:14:50;12.57;;;5.70;;
70312;SDS011;57723;51.698;5.344;2023-05-10T08:17:15;13.30;;;6.10;;
70312;SDS011;57723;51.698;5.344;2023-05-10T08:19:43;9.57;;;5.53;;
70312;SDS011;57723;51.698;5.344;2023-05-10T08:22:12;11.82;;;5.55;;
70312;SDS011;57723;51.698;5.344;2023-05-10T08:24:37;11.52;;;5.90;;
70312;SDS011;57723;51.698;5.344;2023-05-10T08:27:09;12.37;;;5.50;;
70312;SDS011;57723;51.698;5.344;2023-05-10T08:29:35;11.13;;;5.57;;
70312;SDS011;57723;51.698;5.344;2023-05-10T08:32:03;11.38;;;5.80;;
70312;SDS011;57723;51.698;5.344;2023-05-10T08:34:28;9.67;;;5.13;;
70312;SDS011;57723;51.698;5.344;2023-05-10T08:36:56;10.45;;;5.43;;
70312;SDS011;57723;51.698;5.344;2023-05-10T08:39:21;12.55;;;6.50;;
70312;SDS011;57723;51.698;5.344;2023-05-10T08:41:50;12.17;;;6.20;;
70312;SDS011;57723;51.698;5.344;2023-05-10T08:44:18;9.55;;;5.63;;
70312;SDS011;57723;51.698;5.344;2023-05-10T08:46:45;10.18;;;5.32;;
70312;SDS011;57723;51.698;5.344;2023-05-10T08:49:12;11.02;;;5.10;;
70312;SDS011;57723;51.698;5.344;2023-05-10T08:51:38;11.20;;;5.80;;
70312;SDS011;57723;51.698;5.344;2023-05-10T08:54:05;11.85;;;5.95;;
70312;SDS011;57723;51.698;5.344;2023-05-10T08:56:30;9.93;;;5.50;;
70312;SDS011;57723;51.698;5.344;2023-05-10T08:58:56;11.37;;;5.40;;
70312;SDS011;57723;51.698;5.344;2023-05-10T09:01:21;9.73;;;5.50;;
70312;SDS011;57723;51.698;5.344;2023-05-10T09:03:46;8.87;;;4.77;;
70312;SDS011;57723;51.698;5.344;2023-05-10T09:06:13;10.60;;;5.18;;
70312;SDS011;57723;51.698;5.344;2023-05-10T09:08:38;9.35;;;4.72;;
70312;SDS011;57723;51.698;5.344;2023-05-10T09:11:05;10.27;;;4.75;;
70312;SDS011;57723;51.698;5.344;2023-05-10T09:13:30;8.53;;;4.20;;
70312;SDS011;57723;51.698;5.344;2023-05-10T09:15:58;7.77;;;4.23;;
70312;SDS011;57723;51.698;5.344;2023-05-10T09:18:24;8.95;;;4.18;;
70312;SDS011;57723;51.698;5.344;2023-05-10T09:20:49;9.50;;;4.53;;
70312;SDS011;57723;51.698;5.344;2023-05-10T09:23:17;10.13;;;4.67;;
70312;SDS011;57723;51.698;5.344;2023-05-10T09:25:43;10.77;;;5.10;;
70312;SDS011;57723;51.698;5.344;2023-05-10T09:28:16;11.57;;;5.40;;
70312;SDS011;57723;51.698;5.344;2023-05-10T09:30:42;9.77;;;4.97;;
70312;SDS011;57723;51.698;5.344;2023-05-10T09:33:08;11.82;;;5.53;;
70312;SDS011;57723;51.698;5.344;2023-05-10T09:35:33;9.67;;;4.80;;
70312;SDS011;57723;51.698;5.344;2023-05-10T09:38:07;13.90;;;5.07;;
70312;SDS011;57723;51.698;5.344;2023-05-10T09:40:33;9.85;;;4.80;;
70312;SDS011;57723;51.698;5.344;2023-05-10T09:45:27;13.07;;;5.25;;
70312;SDS011;57723;51.698;5.344;2023-05-10T09:47:53;8.93;;;4.60;;
70312;SDS011;57723;51.698;5.344;2023-05-10T09:50:19;9.67;;;4.50;;
70312;SDS011;57723;51.698;5.344;2023-05-10T09:52:48;11.65;;;5.30;;
70312;SDS011;57723;51.698;5.344;2023-05-10T09:55:14;10.52;;;4.70;;
70312;SDS011;57723;51.698;5.344;2023-05-10T09:57:40;8.57;;;4.50;;
70312;SDS011;57723;51.698;5.344;2023-05-10T10:00:06;7.97;;;4.03;;
70312;SDS011;57723;51.698;5.344;2023-05-10T10:02:31;9.38;;;4.25;;
70312;SDS011;57723;51.698;5.344;2023-05-10T10:04:57;8.43;;;4.37;;
70312;SDS011;57723;51.698;5.344;2023-05-10T10:07:23;8.80;;;4.70;;
70312;SDS011;57723;51.698;5.344;2023-05-10T10:09:52;7.97;;;4.70;;
70312;SDS011;57723;51.698;5.344;2023-05-10T10:12:18;11.20;;;4.22;;
70312;SDS011;57723;51.698;5.344;2023-05-10T10:14:46;9.37;;;4.10;;
70312;SDS011;57723;51.698;5.344;2023-05-10T10:17:12;9.70;;;4.40;;
70312;SDS011;57723;51.698;5.344;2023-05-10T10:19:37;8.60;;;4.23;;
70312;SDS011;57723;51.698;5.344;2023-05-10T10:22:03;8.65;;;4.10;;
70312;SDS011;57723;51.698;5.344;2023-05-10T10:24:29;9.57;;;3.95;;
70312;SDS011;57723;51.698;5.344;2023-05-10T10:26:55;9.17;;;4.23;;
70312;SDS011;57723;51.698;5.344;2023-05-10T10:29:39;9.65;;;3.80;;
70312;SDS011;57723;51.698;5.344;2023-05-10T10:32:18;7.75;;;3.70;;
70312;SDS011;57723;51.698;5.344;2023-05-10T10:34:44;9.80;;;3.85;;
70312;SDS011;57723;51.698;5.344;2023-05-10T10:37:09;7.97;;;3.50;;
70312;SDS011;57723;51.698;5.344;2023-05-10T10:39:35;9.33;;;3.63;;
70312;SDS011;57723;51.698;5.344;2023-05-10T10:42:01;7.65;;;3.60;;
70312;SDS011;57723;51.698;5.344;2023-05-10T10:50:02;9.38;;;3.78;;
70312;SDS011;57723;51.698;5.344;2023-05-10T10:52:28;7.85;;;3.55;;
70312;SDS011;57723;51.698;5.344;2023-05-10T10:57:26;9.53;;;3.77;;
70312;SDS011;57723;51.698;5.344;2023-05-10T10:59:53;8.27;;;3.45;;
70312;SDS011;57723;51.698;5.344;2023-05-10T11:05:00;7.77;;;3.40;;
70312;SDS011;57723;51.698;5.344;2023-05-10T11:07:52;7.05;;;3.25;;
70312;SDS011;57723;51.698;5.344;2023-05-10T11:10:21;6.13;;;2.97;;
70312;SDS011;57723;51.698;5.344;2023-05-10T11:12:55;7.78;;;3.55;;
70312;SDS011;57723;51.698;5.344;2023-05-10T11:15:32;6.53;;;3.10;;
70312;SDS011;57723;51.698;5.344;2023-05-10T11:17:58;5.22;;;2.95;;
70312;SDS011;57723;51.698;5.344;2023-05-10T11:20:26;5.93;;;3.08;;
70312;SDS011;57723;51.698;5.344;2023-05-10T11:22:58;6.53;;;2.93;;
70312;SDS011;57723;51.698;5.344;2023-05-10T11:25:26;5.88;;;3.35;;
70312;SDS011;57723;51.698;5.344;2023-05-10T11:27:55;7.07;;;2.80;;
70312;SDS011;57723;51.698;5.344;2023-05-10T11:30:21;7.80;;;3.15;;
70312;SDS011;57723;51.698;5.344;2023-05-10T11:32:47;5.33;;;2.60;;
70312;SDS011;57723;51.698;5.344;2023-05-10T11:35:12;4.63;;;2.60;;
70312;SDS011;57723;51.698;5.344;2023-05-10T11:37:44;8.10;;;2.60;;
70312;SDS011;57723;51.698;5.344;2023-05-10T11:40:13;6.20;;;2.78;;
70312;SDS011;57723;51.698;5.344;2023-05-10T11:42:38;6.40;;;2.80;;
70312;SDS011;57723;51.698;5.344;2023-05-10T11:45:03;7.97;;;2.90;;
70312;SDS011;57723;51.698;5.344;2023-05-10T11:47:29;4.60;;;2.63;;
70312;SDS011;57723;51.698;5.344;2023-05-10T11:49:54;4.60;;;2.50;;
70312;SDS011;57723;51.698;5.344;2023-05-10T11:52:20;5.70;;;2.73;;
70312;SDS011;57723;51.698;5.344;2023-05-10T11:54:54;6.67;;;2.67;;
70312;SDS011;57723;51.698;5.344;2023-05-10T11:57:20;7.70;;;2.80;;
70312;SDS011;57723;51.698;5.344;2023-05-10T11:59:46;4.47;;;2.60;;
70312;SDS011;57723;51.698;5.344;2023-05-10T12:02:12;4.30;;;2.50;;
70312;SDS011;57723;51.698;5.344;2023-05-10T12:04:37;5.63;;;2.70;;
70312;SDS011;57723;51.698;5.344;2023-05-10T12:07:02;6.03;;;3.47;;
70312;SDS011;57723;51.698;5.344;2023-05-10T12:09:28;5.93;;;3.57;;
70312;SDS011;57723;51.698;5.344;2023-05-10T12:11:55;5.13;;;3.53;;
70312;SDS011;57723;51.698;5.344;2023-05-10T12:14:21;5.65;;;3.47;;
70312;SDS011;57723;51.698;5.344;2023-05-10T12:16:47;5.80;;;3.43;;
70312;SDS011;57723;51.698;5.344;2023-05-10T12:19:12;6.00;;;3.47;;
70312;SDS011;57723;51.698;5.344;2023-05-10T12:21:43;6.32;;;3.55;;
70312;SDS011;57723;51.698;5.344;2023-05-10T12:24:09;7.13;;;3.60;;
70312;SDS011;57723;51.698;5.344;2023-05-10T12:26:35;6.07;;;3.30;;
70312;SDS011;57723;51.698;5.344;2023-05-10T12:29:13;5.87;;;3.10;;
70312;SDS011;57723;51.698;5.344;2023-05-10T12:34:23;4.75;;;3.00;;
70312;SDS011;57723;51.698;5.344;2023-05-10T12:36:54;5.53;;;3.00;;
70312;SDS011;57723;51.698;5.344;2023-05-10T12:39:20;5.13;;;3.10;;
70312;SDS011;57723;51.698;5.344;2023-05-10T12:41:45;5.47;;;3.30;;
70312;SDS011;57723;51.698;5.344;2023-05-10T12:44:10;5.55;;;3.00;;
70312;SDS011;57723;51.698;5.344;2023-05-10T12:46:35;6.63;;;2.90;;
70312;SDS011;57723;51.698;5.344;2023-05-10T12:49:01;5.83;;;3.10;;
70312;SDS011;57723;51.698;5.344;2023-05-10T12:51:26;5.77;;;2.80;;
70312;SDS011;57723;51.698;5.344;2023-05-10T12:53:51;4.93;;;2.43;;
70312;SDS011;57723;51.698;5.344;2023-05-10T12:56:17;4.30;;;2.50;;
70312;SDS011;57723;51.698;5.344;2023-05-10T12:58:42;5.80;;;2.60;;
70312;SDS011;57723;51.698;5.344;2023-05-10T13:01:12;4.68;;;2.45;;
70312;SDS011;57723;51.698;5.344;2023-05-10T13:03:38;5.70;;;2.30;;
70312;SDS011;57723;51.698;5.344;2023-05-10T13:06:03;4.80;;;2.40;;
70312;SDS011;57723;51.698;5.344;2023-05-10T13:08:31;4.10;;;2.15;;
70312;SDS011;57723;51.698;5.344;2023-05-10T13:10:58;5.72;;;2.05;;
70312;SDS011;57723;51.698;5.344;2023-05-10T13:13:24;4.50;;;2.35;;
70312;SDS011;57723;51.698;5.344;2023-05-10T13:15:49;6.23;;;2.00;;
70312;SDS011;57723;51.698;5.344;2023-05-10T13:18:15;3.93;;;2.10;;
70312;SDS011;57723;51.698;5.344;2023-05-10T13:20:40;4.45;;;2.15;;
70312;SDS011;57723;51.698;5.344;2023-05-10T13:23:05;4.53;;;2.37;;
70312;SDS011;57723;51.698;5.344;2023-05-10T13:25:30;4.43;;;2.60;;
70312;SDS011;57723;51.698;5.344;2023-05-10T13:27:56;5.27;;;2.87;;
70312;SDS011;57723;51.698;5.344;2023-05-10T13:30:21;5.77;;;3.10;;
70312;SDS011;57723;51.698;5.344;2023-05-10T13:32:48;5.07;;;3.13;;
70312;SDS011;57723;51.698;5.344;2023-05-10T13:35:14;6.00;;;3.30;;
70312;SDS011;57723;51.698;5.344;2023-05-10T13:37:39;6.60;;;3.13;;
70312;SDS011;57723;51.698;5.344;2023-05-10T13:40:05;5.17;;;3.40;;
70312;SDS011;57723;51.698;5.344;2023-05-10T13:42:31;7.63;;;3.67;;
70312;SDS011;57723;51.698;5.344;2023-05-10T13:44:58;5.67;;;3.50;;
70312;SDS011;57723;51.698;5.344;2023-05-10T13:47:23;6.07;;;3.77;;
70312;SDS011;57723;51.698;5.344;2023-05-10T13:49:49;5.28;;;3.58;;
70312;SDS011;57723;51.698;5.344;2023-05-10T13:52:14;5.60;;;3.60;;
70312;SDS011;57723;51.698;5.344;2023-05-10T13:54:40;7.30;;;3.40;;
70312;SDS011;57723;51.698;5.344;2023-05-10T13:57:06;6.55;;;3.60;;
70312;SDS011;57723;51.698;5.344;2023-05-10T13:59:31;6.30;;;3.50;;
70312;SDS011;57723;51.698;5.344;2023-05-10T14:01:57;5.68;;;4.00;;
70312;SDS011;57723;51.698;5.344;2023-05-10T14:04:23;7.33;;;3.60;;
70312;SDS011;57723;51.698;5.344;2023-05-10T14:06:48;5.73;;;3.97;;
70312;SDS011;57723;51.698;5.344;2023-05-10T14:09:13;7.00;;;3.33;;
70312;SDS011;57723;51.698;5.344;2023-05-10T14:11:39;6.40;;;4.17;;
70312;SDS011;57723;51.698;5.344;2023-05-10T14:14:10;7.50;;;4.35;;
70312;SDS011;57723;51.698;5.344;2023-05-10T14:16:36;5.50;;;3.70;;
70312;SDS011;57723;51.698;5.344;2023-05-10T14:19:05;7.72;;;4.13;;
70312;SDS011;57723;51.698;5.344;2023-05-10T14:21:30;5.40;;;3.60;;
70312;SDS011;57723;51.698;5.344;2023-05-10T14:23:59;6.90;;;3.83;;
70312;SDS011;57723;51.698;5.344;2023-05-10T14:26:25;6.55;;;3.90;;
70312;SDS011;57723;51.698;5.344;2023-05-10T14:28:51;7.40;;;3.70;;
70312;SDS011;57723;51.698;5.344;2023-05-10T14:31:16;5.30;;;3.57;;
70312;SDS011;57723;51.698;5.344;2023-05-10T14:33:41;6.17;;;3.90;;
70312;SDS011;57723;51.698;5.344;2023-05-10T14:36:07;6.93;;;3.90;;
70312;SDS011;57723;51.698;5.344;2023-05-10T14:38:33;5.23;;;3.40;;
70312;SDS011;57723;51.698;5.344;2023-05-10T14:40:58;5.03;;;3.00;;
70312;SDS011;57723;51.698;5.344;2023-05-10T14:43:24;6.07;;;3.38;;
70312;SDS011;57723;51.698;5.344;2023-05-10T14:45:49;5.33;;;3.20;;
70312;SDS011;57723;51.698;5.344;2023-05-10T14:48:15;7.17;;;3.33;;
70312;SDS011;57723;51.698;5.344;2023-05-10T14:50:42;4.80;;;3.17;;
70312;SDS011;57723;51.698;5.344;2023-05-10T14:53:08;7.67;;;3.63;;
70312;SDS011;57723;51.698;5.344;2023-05-10T14:55:33;5.87;;;3.40;;
70312;SDS011;57723;51.698;5.344;2023-05-10T14:57:59;5.45;;;3.22;;
70312;SDS011;57723;51.698;5.344;2023-05-10T15:00:24;5.30;;;2.90;;
70312;SDS011;57723;51.698;5.344;2023-05-10T15:02:50;5.07;;;2.87;;
70312;SDS011;57723;51.698;5.344;2023-05-10T15:05:18;6.22;;;3.20;;
70312;SDS011;57723;51.698;5.344;2023-05-10T15:07:44;7.03;;;3.30;;
70312;SDS011;57723;51.698;5.344;2023-05-10T15:10:09;6.07;;;3.38;;
70312;SDS011;57723;51.698;5.344;2023-05-10T15:12:36;6.18;;;2.95;;
70312;SDS011;57723;51.698;5.344;2023-05-10T15:15:01;4.93;;;3.30;;